sensor_id;sensor_type;location;lat;lon;timestamp;P1;durP1;ratioP1;P2;durP2;ratioP2
48375;SDS011;34178;50.904;11.560;2022-12-24T00:02:18;14.88;;;2.65;;
48375;SDS011;34178;50.904;11.560;2022-12-24T00:04:44;10.05;;;2.13;;
48375;SDS011;34178;50.904;11.560;2022-12-24T00:07:10;8.75;;;2.13;;
48375;SDS011;34178;50.904;11.560;2022-12-24T00:09:36;11.75;;;2.42;;
48375;SDS011;34178;50.904;11.560;2022-12-24T00:12:02;9.48;;;2.42;;
48375;SDS011;34178;50.904;11.560;2022-12-24T00:14:28;9.77;;;3.33;;
48375;SDS011;34178;50.904;11.560;2022-12-24T00:16:54;13.25;;;2.75;;
48375;SDS011;34178;50.904;11.560;2022-12-24T00:19:19;11.65;;;1.60;;
48375;SDS011;34178;50.904;11.560;2022-12-24T00:21:45;7.78;;;1.70;;
48375;SDS011;34178;50.904;11.560;2022-12-24T00:24:10;12.55;;;2.80;;
48375;SDS011;34178;50.904;11.560;2022-12-24T00:26:36;7.65;;;1.75;;
48375;SDS011;34178;50.904;11.560;2022-12-24T00:29:02;7.63;;;1.98;;
48375;SDS011;34178;50.904;11.560;2022-12-24T00:31:27;6.32;;;1.90;;
48375;SDS011;34178;50.904;11.560;2022-12-24T00:33:53;7.35;;;1.55;;
48375;SDS011;34178;50.904;11.560;2022-12-24T00:36:19;8.38;;;2.28;;
48375;SDS011;34178;50.904;11.560;2022-12-24T00:38:45;7.43;;;1.90;;
48375;SDS011;34178;50.904;11.560;2022-12-24T00:41:11;10.00;;;1.80;;
48375;SDS011;34178;50.904;11.560;2022-12-24T00:43:53;14.32;;;3.60;;
48375;SDS011;34178;50.904;11.560;2022-12-24T00:46:19;10.50;;;2.28;;
48375;SDS011;34178;50.904;11.560;2022-12-24T00:48:45;6.07;;;2.05;;
48375;SDS011;34178;50.904;11.560;2022-12-24T00:51:10;9.05;;;2.10;;
48375;SDS011;34178;50.904;11.560;2022-12-24T00:53:36;9.60;;;2.13;;
48375;SDS011;34178;50.904;11.560;2022-12-24T00:56:02;8.07;;;1.27;;
48375;SDS011;34178;50.904;11.560;2022-12-24T00:58:27;10.45;;;2.47;;
48375;SDS011;34178;50.904;11.560;2022-12-24T01:00:53;6.28;;;1.20;;
48375;SDS011;34178;50.904;11.560;2022-12-24T01:03:19;8.07;;;1.35;;
48375;SDS011;34178;50.904;11.560;2022-12-24T01:05:44;10.38;;;1.55;;
48375;SDS011;34178;50.904;11.560;2022-12-24T01:08:12;7.85;;;1.48;;
48375;SDS011;34178;50.904;11.560;2022-12-24T01:10:38;4.78;;;1.02;;
48375;SDS011;34178;50.904;11.560;2022-12-24T01:13:03;7.28;;;1.20;;
48375;SDS011;34178;50.904;11.560;2022-12-24T01:15:29;9.18;;;1.52;;
48375;SDS011;34178;50.904;11.560;2022-12-24T01:17:55;6.88;;;1.63;;
48375;SDS011;34178;50.904;11.560;2022-12-24T01:20:22;8.65;;;1.80;;
48375;SDS011;34178;50.904;11.560;2022-12-24T01:22:48;4.90;;;1.00;;
48375;SDS011;34178;50.904;11.560;2022-12-24T01:25:13;5.07;;;1.20;;
48375;SDS011;34178;50.904;11.560;2022-12-24T01:27:39;6.88;;;1.13;;
48375;SDS011;34178;50.904;11.560;2022-12-24T01:30:05;6.05;;;1.27;;
48375;SDS011;34178;50.904;11.560;2022-12-24T01:32:32;5.57;;;1.33;;
48375;SDS011;34178;50.904;11.560;2022-12-24T01:34:58;5.05;;;1.30;;
48375;SDS011;34178;50.904;11.560;2022-12-24T01:37:24;9.48;;;1.60;;
48375;SDS011;34178;50.904;11.560;2022-12-24T01:39:49;9.20;;;1.55;;
48375;SDS011;34178;50.904;11.560;2022-12-24T01:42:17;5.43;;;1.38;;
48375;SDS011;34178;50.904;11.560;2022-12-24T01:50:43;4.55;;;1.20;;
48375;SDS011;34178;50.904;11.560;2022-12-24T01:53:09;5.32;;;0.93;;
48375;SDS011;34178;50.904;11.560;2022-12-24T01:55:37;5.95;;;1.30;;
48375;SDS011;34178;50.904;11.560;2022-12-24T01:58:03;7.90;;;1.23;;
48375;SDS011;34178;50.904;11.560;2022-12-24T02:00:31;5.22;;;1.00;;
48375;SDS011;34178;50.904;11.560;2022-12-24T02:02:57;7.28;;;1.17;;
48375;SDS011;34178;50.904;11.560;2022-12-24T02:05:26;5.53;;;1.27;;
48375;SDS011;34178;50.904;11.560;2022-12-24T02:07:56;6.53;;;1.55;;
48375;SDS011;34178;50.904;11.560;2022-12-24T02:10:24;6.82;;;1.48;;
48375;SDS011;34178;50.904;11.560;2022-12-24T02:12:50;5.90;;;1.20;;
48375;SDS011;34178;50.904;11.560;2022-12-24T02:15:17;8.45;;;1.73;;
48375;SDS011;34178;50.904;11.560;2022-12-24T02:17:50;11.10;;;1.58;;
48375;SDS011;34178;50.904;11.560;2022-12-24T02:23:26;8.13;;;1.95;;
48375;SDS011;34178;50.904;11.560;2022-12-24T02:31:49;6.55;;;1.70;;
48375;SDS011;34178;50.904;11.560;2022-12-24T02:39:32;10.05;;;2.20;;
48375;SDS011;34178;50.904;11.560;2022-12-24T02:42:04;10.45;;;1.70;;
48375;SDS011;34178;50.904;11.560;2022-12-24T02:44:46;13.23;;;2.75;;
48375;SDS011;34178;50.904;11.560;2022-12-24T02:47:33;11.27;;;2.38;;
48375;SDS011;34178;50.904;11.560;2022-12-24T02:50:00;7.30;;;1.70;;
48375;SDS011;34178;50.904;11.560;2022-12-24T02:52:29;14.20;;;2.05;;
48375;SDS011;34178;50.904;11.560;2022-12-24T02:54:57;9.40;;;1.63;;
48375;SDS011;34178;50.904;11.560;2022-12-24T02:57:37;8.63;;;1.47;;
48375;SDS011;34178;50.904;11.560;2022-12-24T03:11:15;8.50;;;1.80;;
48375;SDS011;34178;50.904;11.560;2022-12-24T03:13:42;6.72;;;1.52;;
48375;SDS011;34178;50.904;11.560;2022-12-24T03:16:15;10.35;;;3.03;;
48375;SDS011;34178;50.904;11.560;2022-12-24T03:18:45;11.80;;;1.40;;
48375;SDS011;34178;50.904;11.560;2022-12-24T03:21:21;8.40;;;2.25;;
48375;SDS011;34178;50.904;11.560;2022-12-24T03:23:52;10.13;;;1.90;;
48375;SDS011;34178;50.904;11.560;2022-12-24T03:26:19;10.82;;;1.83;;
48375;SDS011;34178;50.904;11.560;2022-12-24T03:28:45;4.40;;;1.63;;
48375;SDS011;34178;50.904;11.560;2022-12-24T03:31:12;8.68;;;1.70;;
48375;SDS011;34178;50.904;11.560;2022-12-24T03:33:38;12.68;;;1.92;;
48375;SDS011;34178;50.904;11.560;2022-12-24T03:36:04;9.00;;;1.98;;
48375;SDS011;34178;50.904;11.560;2022-12-24T03:38:31;10.05;;;1.98;;
48375;SDS011;34178;50.904;11.560;2022-12-24T03:40:57;13.38;;;2.58;;
48375;SDS011;34178;50.904;11.560;2022-12-24T03:43:23;11.73;;;2.38;;
48375;SDS011;34178;50.904;11.560;2022-12-24T03:45:49;10.43;;;2.20;;
48375;SDS011;34178;50.904;11.560;2022-12-24T03:48:14;8.15;;;1.80;;
48375;SDS011;34178;50.904;11.560;2022-12-24T03:50:40;14.02;;;1.90;;
48375;SDS011;34178;50.904;11.560;2022-12-24T03:53:06;9.80;;;2.05;;
48375;SDS011;34178;50.904;11.560;2022-12-24T03:55:36;9.77;;;1.80;;
48375;SDS011;34178;50.904;11.560;2022-12-24T03:58:03;9.48;;;1.55;;
48375;SDS011;34178;50.904;11.560;2022-12-24T04:00:30;10.25;;;2.17;;
48375;SDS011;34178;50.904;11.560;2022-12-24T04:02:56;12.90;;;1.75;;
48375;SDS011;34178;50.904;11.560;2022-12-24T04:05:21;12.20;;;2.30;;
48375;SDS011;34178;50.904;11.560;2022-12-24T04:07:47;12.70;;;2.63;;
48375;SDS011;34178;50.904;11.560;2022-12-24T04:10:13;8.10;;;1.90;;
48375;SDS011;34178;50.904;11.560;2022-12-24T04:12:39;10.25;;;1.88;;
48375;SDS011;34178;50.904;11.560;2022-12-24T04:15:05;7.72;;;2.42;;
48375;SDS011;34178;50.904;11.560;2022-12-24T04:17:31;11.13;;;2.67;;
48375;SDS011;34178;50.904;11.560;2022-12-24T04:19:57;12.50;;;2.20;;
48375;SDS011;34178;50.904;11.560;2022-12-24T04:22:23;12.23;;;1.50;;
48375;SDS011;34178;50.904;11.560;2022-12-24T04:24:48;14.65;;;2.55;;
48375;SDS011;34178;50.904;11.560;2022-12-24T04:27:14;7.63;;;2.08;;
48375;SDS011;34178;50.904;11.560;2022-12-24T04:29:40;11.32;;;1.70;;
48375;SDS011;34178;50.904;11.560;2022-12-24T04:32:06;12.38;;;1.80;;
48375;SDS011;34178;50.904;11.560;2022-12-24T04:34:31;9.07;;;1.95;;
48375;SDS011;34178;50.904;11.560;2022-12-24T04:36:57;20.45;;;5.35;;
48375;SDS011;34178;50.904;11.560;2022-12-24T04:39:24;12.93;;;2.20;;
48375;SDS011;34178;50.904;11.560;2022-12-24T04:41:50;14.05;;;2.83;;
48375;SDS011;34178;50.904;11.560;2022-12-24T04:44:15;13.15;;;2.92;;
48375;SDS011;34178;50.904;11.560;2022-12-24T04:46:41;13.52;;;2.42;;
48375;SDS011;34178;50.904;11.560;2022-12-24T04:49:07;11.57;;;2.13;;
48375;SDS011;34178;50.904;11.560;2022-12-24T04:51:33;16.48;;;1.77;;
48375;SDS011;34178;50.904;11.560;2022-12-24T04:53:59;7.97;;;1.77;;
48375;SDS011;34178;50.904;11.560;2022-12-24T04:56:26;13.25;;;1.88;;
48375;SDS011;34178;50.904;11.560;2022-12-24T04:58:54;10.00;;;2.10;;
48375;SDS011;34178;50.904;11.560;2022-12-24T05:01:21;14.00;;;2.42;;
48375;SDS011;34178;50.904;11.560;2022-12-24T05:03:48;11.52;;;2.45;;
48375;SDS011;34178;50.904;11.560;2022-12-24T05:06:17;12.32;;;2.10;;
48375;SDS011;34178;50.904;11.560;2022-12-24T05:08:44;11.73;;;2.63;;
48375;SDS011;34178;50.904;11.560;2022-12-24T05:11:11;13.32;;;2.17;;
48375;SDS011;34178;50.904;11.560;2022-12-24T05:13:39;9.27;;;1.52;;
48375;SDS011;34178;50.904;11.560;2022-12-24T05:16:09;10.23;;;1.90;;
48375;SDS011;34178;50.904;11.560;2022-12-24T05:18:36;12.15;;;2.03;;
48375;SDS011;34178;50.904;11.560;2022-12-24T05:21:06;11.70;;;2.10;;
48375;SDS011;34178;50.904;11.560;2022-12-24T05:23:33;15.40;;;2.13;;
48375;SDS011;34178;50.904;11.560;2022-12-24T05:26:31;11.70;;;1.73;;
48375;SDS011;34178;50.904;11.560;2022-12-24T05:29:00;9.15;;;2.40;;
48375;SDS011;34178;50.904;11.560;2022-12-24T05:31:28;9.27;;;1.55;;
48375;SDS011;34178;50.904;11.560;2022-12-24T05:33:54;11.38;;;2.45;;
48375;SDS011;34178;50.904;11.560;2022-12-24T05:36:21;13.60;;;2.75;;
48375;SDS011;34178;50.904;11.560;2022-12-24T05:38:47;12.05;;;1.98;;
48375;SDS011;34178;50.904;11.560;2022-12-24T05:41:13;9.50;;;2.33;;
48375;SDS011;34178;50.904;11.560;2022-12-24T05:43:39;10.55;;;1.60;;
48375;SDS011;34178;50.904;11.560;2022-12-24T05:46:06;9.07;;;1.50;;
48375;SDS011;34178;50.904;11.560;2022-12-24T05:48:33;9.57;;;1.63;;
48375;SDS011;34178;50.904;11.560;2022-12-24T05:51:02;8.82;;;1.63;;
48375;SDS011;34178;50.904;11.560;2022-12-24T05:53:30;8.45;;;1.13;;
48375;SDS011;34178;50.904;11.560;2022-12-24T05:56:01;11.88;;;1.70;;
48375;SDS011;34178;50.904;11.560;2022-12-24T05:58:53;13.82;;;1.70;;
48375;SDS011;34178;50.904;11.560;2022-12-24T06:01:19;11.95;;;1.77;;
48375;SDS011;34178;50.904;11.560;2022-12-24T06:03:46;9.98;;;1.27;;
48375;SDS011;34178;50.904;11.560;2022-12-24T06:06:16;8.82;;;1.33;;
48375;SDS011;34178;50.904;11.560;2022-12-24T06:08:52;15.85;;;2.70;;
48375;SDS011;34178;50.904;11.560;2022-12-24T06:11:21;9.63;;;1.40;;
48375;SDS011;34178;50.904;11.560;2022-12-24T06:13:48;12.68;;;2.22;;
48375;SDS011;34178;50.904;11.560;2022-12-24T06:16:14;10.18;;;1.58;;
48375;SDS011;34178;50.904;11.560;2022-12-24T06:18:42;14.18;;;2.40;;
48375;SDS011;34178;50.904;11.560;2022-12-24T06:21:08;9.35;;;1.67;;
48375;SDS011;34178;50.904;11.560;2022-12-24T06:23:35;13.23;;;1.70;;
48375;SDS011;34178;50.904;11.560;2022-12-24T06:26:02;14.38;;;1.92;;
48375;SDS011;34178;50.904;11.560;2022-12-24T06:28:30;9.32;;;1.65;;
48375;SDS011;34178;50.904;11.560;2022-12-24T06:30:58;13.70;;;1.95;;
48375;SDS011;34178;50.904;11.560;2022-12-24T06:33:25;7.75;;;1.65;;
48375;SDS011;34178;50.904;11.560;2022-12-24T06:35:51;8.15;;;1.48;;
48375;SDS011;34178;50.904;11.560;2022-12-24T06:38:16;10.18;;;1.83;;
48375;SDS011;34178;50.904;11.560;2022-12-24T06:40:43;9.68;;;2.35;;
48375;SDS011;34178;50.904;11.560;2022-12-24T06:43:10;10.60;;;2.45;;
48375;SDS011;34178;50.904;11.560;2022-12-24T06:45:36;11.15;;;2.20;;
48375;SDS011;34178;50.904;11.560;2022-12-24T06:48:02;14.75;;;2.10;;
48375;SDS011;34178;50.904;11.560;2022-12-24T06:50:28;10.07;;;1.73;;
48375;SDS011;34178;50.904;11.560;2022-12-24T06:52:54;10.90;;;3.30;;
48375;SDS011;34178;50.904;11.560;2022-12-24T06:55:19;14.70;;;2.60;;
48375;SDS011;34178;50.904;11.560;2022-12-24T06:57:45;12.45;;;3.13;;
48375;SDS011;34178;50.904;11.560;2022-12-24T07:00:11;15.18;;;2.00;;
48375;SDS011;34178;50.904;11.560;2022-12-24T07:02:40;14.07;;;2.28;;
48375;SDS011;34178;50.904;11.560;2022-12-24T07:07:37;14.88;;;3.72;;
48375;SDS011;34178;50.904;11.560;2022-12-24T07:10:04;15.30;;;3.15;;
48375;SDS011;34178;50.904;11.560;2022-12-24T07:12:31;11.15;;;2.22;;
48375;SDS011;34178;50.904;11.560;2022-12-24T07:14:57;18.10;;;2.30;;
48375;SDS011;34178;50.904;11.560;2022-12-24T07:17:23;10.13;;;2.28;;
48375;SDS011;34178;50.904;11.560;2022-12-24T07:19:48;16.60;;;4.93;;
48375;SDS011;34178;50.904;11.560;2022-12-24T07:22:14;15.25;;;2.03;;
48375;SDS011;34178;50.904;11.560;2022-12-24T07:24:40;15.65;;;2.40;;
48375;SDS011;34178;50.904;11.560;2022-12-24T07:27:06;14.15;;;2.78;;
48375;SDS011;34178;50.904;11.560;2022-12-24T07:29:32;13.20;;;2.33;;
48375;SDS011;34178;50.904;11.560;2022-12-24T07:31:58;15.60;;;2.80;;
48375;SDS011;34178;50.904;11.560;2022-12-24T07:34:24;16.00;;;3.03;;
48375;SDS011;34178;50.904;11.560;2022-12-24T07:36:50;17.50;;;2.50;;
48375;SDS011;34178;50.904;11.560;2022-12-24T07:39:15;13.98;;;2.53;;
48375;SDS011;34178;50.904;11.560;2022-12-24T07:41:41;13.35;;;2.70;;
48375;SDS011;34178;50.904;11.560;2022-12-24T07:44:10;20.98;;;3.33;;
48375;SDS011;34178;50.904;11.560;2022-12-24T07:46:37;13.40;;;2.15;;
48375;SDS011;34178;50.904;11.560;2022-12-24T07:49:03;16.23;;;4.38;;
48375;SDS011;34178;50.904;11.560;2022-12-24T07:51:29;16.50;;;2.58;;
48375;SDS011;34178;50.904;11.560;2022-12-24T07:53:55;16.88;;;2.70;;
48375;SDS011;34178;50.904;11.560;2022-12-24T07:56:20;10.93;;;2.55;;
48375;SDS011;34178;50.904;11.560;2022-12-24T07:58:46;20.10;;;3.85;;
48375;SDS011;34178;50.904;11.560;2022-12-24T08:01:14;10.57;;;2.33;;
48375;SDS011;34178;50.904;11.560;2022-12-24T08:03:39;11.75;;;2.17;;
48375;SDS011;34178;50.904;11.560;2022-12-24T08:06:05;12.23;;;2.65;;
48375;SDS011;34178;50.904;11.560;2022-12-24T08:08:31;11.35;;;2.35;;
48375;SDS011;34178;50.904;11.560;2022-12-24T08:11:01;11.10;;;2.10;;
48375;SDS011;34178;50.904;11.560;2022-12-24T08:15:53;8.70;;;1.73;;
48375;SDS011;34178;50.904;11.560;2022-12-24T08:18:19;13.77;;;1.92;;
48375;SDS011;34178;50.904;11.560;2022-12-24T08:20:45;10.40;;;1.98;;
48375;SDS011;34178;50.904;11.560;2022-12-24T08:23:10;6.82;;;1.75;;
48375;SDS011;34178;50.904;11.560;2022-12-24T08:25:36;11.02;;;1.65;;
48375;SDS011;34178;50.904;11.560;2022-12-24T08:28:02;7.07;;;1.40;;
48375;SDS011;34178;50.904;11.560;2022-12-24T08:30:28;6.82;;;1.10;;
48375;SDS011;34178;50.904;11.560;2022-12-24T08:32:54;5.35;;;0.88;;
48375;SDS011;34178;50.904;11.560;2022-12-24T08:35:20;5.88;;;1.20;;
48375;SDS011;34178;50.904;11.560;2022-12-24T08:37:45;5.90;;;0.95;;
48375;SDS011;34178;50.904;11.560;2022-12-24T08:40:11;3.30;;;0.93;;
48375;SDS011;34178;50.904;11.560;2022-12-24T08:42:37;8.15;;;1.27;;
48375;SDS011;34178;50.904;11.560;2022-12-24T08:45:03;6.22;;;1.10;;
48375;SDS011;34178;50.904;11.560;2022-12-24T08:47:29;8.27;;;1.40;;
48375;SDS011;34178;50.904;11.560;2022-12-24T08:49:54;3.40;;;0.80;;
48375;SDS011;34178;50.904;11.560;2022-12-24T08:52:20;6.72;;;1.08;;
48375;SDS011;34178;50.904;11.560;2022-12-24T08:54:46;4.75;;;1.65;;
48375;SDS011;34178;50.904;11.560;2022-12-24T08:57:11;5.63;;;1.00;;
48375;SDS011;34178;50.904;11.560;2022-12-24T08:59:38;4.65;;;0.90;;
48375;SDS011;34178;50.904;11.560;2022-12-24T09:02:04;6.22;;;1.30;;
48375;SDS011;34178;50.904;11.560;2022-12-24T09:04:30;8.85;;;1.58;;
48375;SDS011;34178;50.904;11.560;2022-12-24T09:06:55;5.30;;;1.75;;
48375;SDS011;34178;50.904;11.560;2022-12-24T09:09:21;10.25;;;1.80;;
48375;SDS011;34178;50.904;11.560;2022-12-24T09:11:47;4.97;;;1.27;;
48375;SDS011;34178;50.904;11.560;2022-12-24T09:14:12;5.65;;;1.05;;
48375;SDS011;34178;50.904;11.560;2022-12-24T09:16:38;6.97;;;1.40;;
48375;SDS011;34178;50.904;11.560;2022-12-24T09:19:04;11.93;;;1.83;;
48375;SDS011;34178;50.904;11.560;2022-12-24T09:21:29;9.15;;;1.75;;
48375;SDS011;34178;50.904;11.560;2022-12-24T09:23:55;6.50;;;1.25;;
48375;SDS011;34178;50.904;11.560;2022-12-24T09:26:25;8.25;;;1.40;;
48375;SDS011;34178;50.904;11.560;2022-12-24T09:28:51;7.53;;;2.00;;
48375;SDS011;34178;50.904;11.560;2022-12-24T09:31:18;11.70;;;1.80;;
48375;SDS011;34178;50.904;11.560;2022-12-24T09:33:44;14.57;;;2.05;;
48375;SDS011;34178;50.904;11.560;2022-12-24T09:36:12;6.38;;;1.50;;
48375;SDS011;34178;50.904;11.560;2022-12-24T09:38:37;8.80;;;1.60;;
48375;SDS011;34178;50.904;11.560;2022-12-24T09:41:10;8.73;;;1.73;;
48375;SDS011;34178;50.904;11.560;2022-12-24T09:43:38;7.70;;;1.50;;
48375;SDS011;34178;50.904;11.560;2022-12-24T09:48:48;7.82;;;1.63;;
48375;SDS011;34178;50.904;11.560;2022-12-24T09:54:06;7.20;;;1.75;;
48375;SDS011;34178;50.904;11.560;2022-12-24T09:56:45;8.02;;;1.25;;
48375;SDS011;34178;50.904;11.560;2022-12-24T09:59:16;8.80;;;1.60;;
48375;SDS011;34178;50.904;11.560;2022-12-24T10:01:48;8.25;;;1.35;;
48375;SDS011;34178;50.904;11.560;2022-12-24T10:04:16;6.63;;;1.50;;
48375;SDS011;34178;50.904;11.560;2022-12-24T10:06:49;15.68;;;2.08;;
48375;SDS011;34178;50.904;11.560;2022-12-24T10:17:21;9.90;;;2.08;;
48375;SDS011;34178;50.904;11.560;2022-12-24T10:28:12;9.45;;;1.90;;
48375;SDS011;34178;50.904;11.560;2022-12-24T10:30:41;10.18;;;2.00;;
48375;SDS011;34178;50.904;11.560;2022-12-24T10:33:18;8.60;;;2.58;;
48375;SDS011;34178;50.904;11.560;2022-12-24T10:35:51;5.57;;;1.23;;
48375;SDS011;34178;50.904;11.560;2022-12-24T10:38:19;6.93;;;1.23;;
48375;SDS011;34178;50.904;11.560;2022-12-24T10:40:46;7.03;;;1.52;;
48375;SDS011;34178;50.904;11.560;2022-12-24T10:43:15;6.93;;;2.05;;
48375;SDS011;34178;50.904;11.560;2022-12-24T10:45:47;5.43;;;1.50;;
48375;SDS011;34178;50.904;11.560;2022-12-24T10:48:40;6.22;;;1.58;;
48375;SDS011;34178;50.904;11.560;2022-12-24T10:51:10;4.63;;;1.70;;
48375;SDS011;34178;50.904;11.560;2022-12-24T10:56:50;4.32;;;1.30;;
48375;SDS011;34178;50.904;11.560;2022-12-24T10:59:30;6.13;;;1.20;;
48375;SDS011;34178;50.904;11.560;2022-12-24T11:02:23;4.75;;;1.00;;
48375;SDS011;34178;50.904;11.560;2022-12-24T11:04:58;4.80;;;1.15;;
48375;SDS011;34178;50.904;11.560;2022-12-24T11:07:25;4.18;;;0.80;;
48375;SDS011;34178;50.904;11.560;2022-12-24T11:12:27;4.53;;;1.23;;
48375;SDS011;34178;50.904;11.560;2022-12-24T11:17:56;4.10;;;1.00;;
48375;SDS011;34178;50.904;11.560;2022-12-24T11:20:28;6.50;;;1.27;;
48375;SDS011;34178;50.904;11.560;2022-12-24T11:22:56;6.82;;;1.23;;
48375;SDS011;34178;50.904;11.560;2022-12-24T11:25:29;4.53;;;1.00;;
48375;SDS011;34178;50.904;11.560;2022-12-24T11:28:18;3.50;;;1.10;;
48375;SDS011;34178;50.904;11.560;2022-12-24T11:30:57;4.95;;;1.63;;
48375;SDS011;34178;50.904;11.560;2022-12-24T11:33:23;4.32;;;1.17;;
48375;SDS011;34178;50.904;11.560;2022-12-24T11:36:00;4.60;;;1.20;;
48375;SDS011;34178;50.904;11.560;2022-12-24T11:38:31;6.38;;;1.67;;
48375;SDS011;34178;50.904;11.560;2022-12-24T11:41:02;5.82;;;2.10;;
48375;SDS011;34178;50.904;11.560;2022-12-24T11:43:35;8.15;;;1.63;;
48375;SDS011;34178;50.904;11.560;2022-12-24T11:46:12;5.47;;;1.90;;
48375;SDS011;34178;50.904;11.560;2022-12-24T11:48:41;9.70;;;2.45;;
48375;SDS011;34178;50.904;11.560;2022-12-24T11:51:17;5.22;;;1.63;;
48375;SDS011;34178;50.904;11.560;2022-12-24T11:53:48;8.77;;;1.73;;
48375;SDS011;34178;50.904;11.560;2022-12-24T11:56:26;9.10;;;1.52;;
48375;SDS011;34178;50.904;11.560;2022-12-24T11:58:59;6.35;;;1.67;;
48375;SDS011;34178;50.904;11.560;2022-12-24T12:01:37;11.30;;;2.25;;
48375;SDS011;34178;50.904;11.560;2022-12-24T12:04:28;9.45;;;1.67;;
48375;SDS011;34178;50.904;11.560;2022-12-24T12:07:19;7.78;;;1.70;;
48375;SDS011;34178;50.904;11.560;2022-12-24T12:12:19;12.18;;;1.67;;
48375;SDS011;34178;50.904;11.560;2022-12-24T12:14:53;8.70;;;1.85;;
48375;SDS011;34178;50.904;11.560;2022-12-24T12:25:42;8.45;;;1.35;;
48375;SDS011;34178;50.904;11.560;2022-12-24T12:28:14;8.95;;;1.45;;
48375;SDS011;34178;50.904;11.560;2022-12-24T12:30:52;9.18;;;1.40;;
48375;SDS011;34178;50.904;11.560;2022-12-24T12:33:31;6.35;;;1.08;;
48375;SDS011;34178;50.904;11.560;2022-12-24T12:36:03;7.60;;;1.67;;
48375;SDS011;34178;50.904;11.560;2022-12-24T12:38:31;8.15;;;1.35;;
48375;SDS011;34178;50.904;11.560;2022-12-24T12:59:08;8.10;;;1.90;;
48375;SDS011;34178;50.904;11.560;2022-12-24T13:12:28;14.45;;;3.85;;
48375;SDS011;34178;50.904;11.560;2022-12-24T13:20:23;11.13;;;2.80;;
48375;SDS011;34178;50.904;11.560;2022-12-24T13:23:17;9.75;;;2.30;;
48375;SDS011;34178;50.904;11.560;2022-12-24T13:25:45;7.32;;;1.90;;
48375;SDS011;34178;50.904;11.560;2022-12-24T13:30:41;17.20;;;3.00;;
48375;SDS011;34178;50.904;11.560;2022-12-24T13:33:08;12.63;;;2.30;;
48375;SDS011;34178;50.904;11.560;2022-12-24T13:35:37;7.63;;;1.92;;
48375;SDS011;34178;50.904;11.560;2022-12-24T13:40:55;13.18;;;2.65;;
48375;SDS011;34178;50.904;11.560;2022-12-24T13:44:21;11.25;;;2.30;;
48375;SDS011;34178;50.904;11.560;2022-12-24T13:46:54;9.50;;;2.10;;
48375;SDS011;34178;50.904;11.560;2022-12-24T13:54:39;14.18;;;2.50;;
48375;SDS011;34178;50.904;11.560;2022-12-24T14:02:55;15.15;;;2.72;;
48375;SDS011;34178;50.904;11.560;2022-12-24T14:08:09;14.63;;;2.33;;
48375;SDS011;34178;50.904;11.560;2022-12-24T14:10:42;14.38;;;2.78;;
48375;SDS011;34178;50.904;11.560;2022-12-24T14:18:45;15.35;;;2.67;;
48375;SDS011;34178;50.904;11.560;2022-12-24T14:21:33;12.50;;;2.47;;
48375;SDS011;34178;50.904;11.560;2022-12-24T14:24:04;10.93;;;2.20;;
48375;SDS011;34178;50.904;11.560;2022-12-24T14:26:35;12.32;;;2.05;;
48375;SDS011;34178;50.904;11.560;2022-12-24T14:29:19;13.00;;;3.25;;
48375;SDS011;34178;50.904;11.560;2022-12-24T14:32:11;12.80;;;2.60;;
48375;SDS011;34178;50.904;11.560;2022-12-24T14:34:39;9.95;;;2.00;;
48375;SDS011;34178;50.904;11.560;2022-12-24T14:37:05;11.80;;;2.17;;
48375;SDS011;34178;50.904;11.560;2022-12-24T14:39:35;13.85;;;1.90;;
48375;SDS011;34178;50.904;11.560;2022-12-24T14:42:21;15.10;;;3.95;;
48375;SDS011;34178;50.904;11.560;2022-12-24T14:55:56;8.65;;;2.90;;
48375;SDS011;34178;50.904;11.560;2022-12-24T15:00:56;15.73;;;6.85;;
48375;SDS011;34178;50.904;11.560;2022-12-24T15:03:25;17.90;;;7.55;;
48375;SDS011;34178;50.904;11.560;2022-12-24T15:05:54;20.65;;;7.82;;
48375;SDS011;34178;50.904;11.560;2022-12-24T15:09:09;17.60;;;7.05;;
48375;SDS011;34178;50.904;11.560;2022-12-24T15:11:15;18.13;;;5.30;;
48375;SDS011;34178;50.904;11.560;2022-12-24T15:13:44;10.85;;;4.30;;
48375;SDS011;34178;50.904;11.560;2022-12-24T15:16:14;11.65;;;4.05;;
48375;SDS011;34178;50.904;11.560;2022-12-24T15:18:47;10.80;;;3.63;;
48375;SDS011;34178;50.904;11.560;2022-12-24T15:24:08;15.73;;;5.53;;
48375;SDS011;34178;50.904;11.560;2022-12-24T15:26:48;16.73;;;6.60;;
48375;SDS011;34178;50.904;11.560;2022-12-24T15:29:27;14.52;;;6.13;;
48375;SDS011;34178;50.904;11.560;2022-12-24T15:31:54;21.55;;;8.60;;
48375;SDS011;34178;50.904;11.560;2022-12-24T15:34:26;16.30;;;5.93;;
48375;SDS011;34178;50.904;11.560;2022-12-24T15:37:05;12.10;;;3.38;;
48375;SDS011;34178;50.904;11.560;2022-12-24T15:39:38;15.25;;;4.15;;
48375;SDS011;34178;50.904;11.560;2022-12-24T15:42:05;18.70;;;7.10;;
48375;SDS011;34178;50.904;11.560;2022-12-24T15:44:39;15.60;;;6.35;;
48375;SDS011;34178;50.904;11.560;2022-12-24T15:47:13;16.50;;;6.63;;
48375;SDS011;34178;50.904;11.560;2022-12-24T15:49:42;10.38;;;5.10;;
48375;SDS011;34178;50.904;11.560;2022-12-24T15:52:15;11.43;;;4.07;;
48375;SDS011;34178;50.904;11.560;2022-12-24T15:54:44;13.52;;;5.95;;
48375;SDS011;34178;50.904;11.560;2022-12-24T15:57:22;15.52;;;6.30;;
48375;SDS011;34178;50.904;11.560;2022-12-24T15:59:57;16.10;;;8.38;;
48375;SDS011;34178;50.904;11.560;2022-12-24T16:02:32;18.45;;;8.05;;
48375;SDS011;34178;50.904;11.560;2022-12-24T16:10:41;16.15;;;6.90;;
48375;SDS011;34178;50.904;11.560;2022-12-24T16:13:13;25.88;;;11.95;;
48375;SDS011;34178;50.904;11.560;2022-12-24T16:15:59;20.67;;;9.35;;
48375;SDS011;34178;50.904;11.560;2022-12-24T16:18:31;16.10;;;7.70;;
48375;SDS011;34178;50.904;11.560;2022-12-24T16:20:57;21.73;;;13.03;;
48375;SDS011;34178;50.904;11.560;2022-12-24T16:23:24;16.95;;;4.20;;
48375;SDS011;34178;50.904;11.560;2022-12-24T16:25:53;18.58;;;6.93;;
48375;SDS011;34178;50.904;11.560;2022-12-24T16:28:19;15.65;;;6.00;;
48375;SDS011;34178;50.904;11.560;2022-12-24T16:30:46;16.08;;;5.88;;
48375;SDS011;34178;50.904;11.560;2022-12-24T16:33:13;16.08;;;5.68;;
48375;SDS011;34178;50.904;11.560;2022-12-24T16:35:41;20.60;;;7.80;;
48375;SDS011;34178;50.904;11.560;2022-12-24T16:38:07;19.67;;;9.30;;
48375;SDS011;34178;50.904;11.560;2022-12-24T16:40:33;16.77;;;7.97;;
48375;SDS011;34178;50.904;11.560;2022-12-24T16:42:59;21.00;;;5.72;;
48375;SDS011;34178;50.904;11.560;2022-12-24T16:45:43;21.42;;;10.02;;
48375;SDS011;34178;50.904;11.560;2022-12-24T16:48:15;19.63;;;8.48;;
48375;SDS011;34178;50.904;11.560;2022-12-24T16:50:46;12.27;;;4.40;;
48375;SDS011;34178;50.904;11.560;2022-12-24T16:53:13;16.35;;;8.10;;
48375;SDS011;34178;50.904;11.560;2022-12-24T16:55:40;19.42;;;9.77;;
48375;SDS011;34178;50.904;11.560;2022-12-24T16:58:06;21.02;;;9.38;;
48375;SDS011;34178;50.904;11.560;2022-12-24T17:00:34;19.15;;;7.82;;
48375;SDS011;34178;50.904;11.560;2022-12-24T17:03:00;30.83;;;15.18;;
48375;SDS011;34178;50.904;11.560;2022-12-24T17:05:25;30.25;;;11.23;;
48375;SDS011;34178;50.904;11.560;2022-12-24T17:07:52;21.60;;;9.80;;
48375;SDS011;34178;50.904;11.560;2022-12-24T17:10:19;23.88;;;13.77;;
48375;SDS011;34178;50.904;11.560;2022-12-24T17:12:45;18.15;;;8.43;;
48375;SDS011;34178;50.904;11.560;2022-12-24T17:15:10;13.00;;;5.68;;
48375;SDS011;34178;50.904;11.560;2022-12-24T17:17:36;10.02;;;3.22;;
48375;SDS011;34178;50.904;11.560;2022-12-24T17:20:02;8.82;;;3.60;;